sensor_id;sensor_type;location;lat;lon;timestamp;pressure;altitude;pressure_sealevel;temperature;humidity
4022;BME280;2025;48.260;16.432;2022-12-29T00:02:04;99918.88;;;-1.33;100.00
4022;BME280;2025;48.260;16.432;2022-12-29T00:04:31;99943.84;;;-1.45;100.00
4022;BME280;2025;48.260;16.432;2022-12-29T00:06:58;99940.22;;;-1.63;100.00
4022;BME280;2025;48.260;16.432;2022-12-29T00:09:25;99943.69;;;-1.48;100.00
4022;BME280;2025;48.260;16.432;2022-12-29T00:11:54;99944.38;;;-1.50;100.00
4022;BME280;2025;48.260;16.432;2022-12-29T00:14:21;99948.47;;;-1.54;100.00
4022;BME280;2025;48.260;16.432;2022-12-29T00:17:06;99936.13;;;-1.59;100.00
4022;BME280;2025;48.260;16.432;2022-12-29T00:19:34;99944.03;;;-1.56;100.00
4022;BME280;2025;48.260;16.432;2022-12-29T00:22:19;99945.25;;;-1.65;100.00
4022;BME280;2025;48.260;16.432;2022-12-29T00:25:04;99937.09;;;-1.72;100.00
4022;BME280;2025;48.260;16.432;2022-12-29T00:27:49;99950.13;;;-1.69;100.00
4022;BME280;2025;48.260;16.432;2022-12-29T00:30:35;99954.56;;;-1.80;100.00
4022;BME280;2025;48.260;16.432;2022-12-29T00:33:22;99945.72;;;-1.85;100.00
4022;BME280;2025;48.260;16.432;2022-12-29T00:36:13;99954.13;;;-1.87;100.00
4022;BME280;2025;48.260;16.432;2022-12-29T00:38:42;99945.63;;;-1.86;100.00
4022;BME280;2025;48.260;16.432;2022-12-29T00:41:28;99936.66;;;-1.93;100.00
4022;BME280;2025;48.260;16.432;2022-12-29T00:44:14;99937.91;;;-1.86;100.00
4022;BME280;2025;48.260;16.432;2022-12-29T00:46:43;99935.78;;;-1.94;100.00
4022;BME280;2025;48.260;16.432;2022-12-29T00:49:13;99944.00;;;-1.99;100.00
4022;BME280;2025;48.260;16.432;2022-12-29T00:52:00;99940.53;;;-2.00;100.00
4022;BME280;2025;48.260;16.432;2022-12-29T00:54:28;99937.97;;;-2.00;100.00
4022;BME280;2025;48.260;16.432;2022-12-29T00:56:56;99953.09;;;-2.04;100.00
4022;BME280;2025;48.260;16.432;2022-12-29T00:59:24;99953.78;;;-2.07;100.00
4022;BME280;2025;48.260;16.432;2022-12-29T01:01:52;99956.97;;;-2.11;100.00
4022;BME280;2025;48.260;16.432;2022-12-29T01:04:21;99960.84;;;-2.17;100.00
4022;BME280;2025;48.260;16.432;2022-12-29T01:06:49;99963.31;;;-2.19;100.00
4022;BME280;2025;48.260;16.432;2022-12-29T01:09:17;99977.16;;;-2.30;100.00
4022;BME280;2025;48.260;16.432;2022-12-29T01:12:01;99964.31;;;-2.30;100.00
4022;BME280;2025;48.260;16.432;2022-12-29T01:14:30;99971.03;;;-2.32;100.00
4022;BME280;2025;48.260;16.432;2022-12-29T01:16:58;99962.44;;;-2.33;100.00
4022;BME280;2025;48.260;16.432;2022-12-29T01:19:25;99964.81;;;-2.36;100.00
4022;BME280;2025;48.260;16.432;2022-12-29T01:21:53;99966.88;;;-2.30;100.00
4022;BME280;2025;48.260;16.432;2022-12-29T01:24:20;99968.97;;;-2.38;100.00
4022;BME280;2025;48.260;16.432;2022-12-29T01:26:47;99973.13;;;-2.40;100.00
4022;BME280;2025;48.260;16.432;2022-12-29T01:29:15;99978.84;;;-2.44;100.00
4022;BME280;2025;48.260;16.432;2022-12-29T01:31:43;99981.91;;;-2.49;100.00
4022;BME280;2025;48.260;16.432;2022-12-29T01:34:11;99979.75;;;-2.56;100.00
4022;BME280;2025;48.260;16.432;2022-12-29T01:36:38;99983.41;;;-2.53;100.00
4022;BME280;2025;48.260;16.432;2022-12-29T01:39:05;99975.41;;;-2.44;100.00
4022;BME280;2025;48.260;16.432;2022-12-29T01:41:32;99969.47;;;-2.43;100.00
4022;BME280;2025;48.260;16.432;2022-12-29T01:43:59;99975.41;;;-2.44;100.00
4022;BME280;2025;48.260;16.432;2022-12-29T01:46:30;99978.06;;;-2.56;100.00
4022;BME280;2025;48.260;16.432;2022-12-29T01:49:07;99972.25;;;-2.53;100.00
4022;BME280;2025;48.260;16.432;2022-12-29T01:51:38;99963.56;;;-2.55;100.00
4022;BME280;2025;48.260;16.432;2022-12-29T01:54:11;99959.44;;;-2.53;100.00
4022;BME280;2025;48.260;16.432;2022-12-29T01:56:39;99952.72;;;-2.51;100.00
4022;BME280;2025;48.260;16.432;2022-12-29T01:59:10;99954.28;;;-2.53;100.00
4022;BME280;2025;48.260;16.432;2022-12-29T02:01:39;99956.56;;;-2.58;100.00
4022;BME280;2025;48.260;16.432;2022-12-29T02:04:07;99959.22;;;-2.56;100.00
4022;BME280;2025;48.260;16.432;2022-12-29T02:06:40;99947.09;;;-2.59;100.00
4022;BME280;2025;48.260;16.432;2022-12-29T02:09:08;99932.88;;;-2.54;100.00
4022;BME280;2025;48.260;16.432;2022-12-29T02:11:36;99929.72;;;-2.50;100.00
4022;BME280;2025;48.260;16.432;2022-12-29T02:14:08;99922.72;;;-2.52;100.00
4022;BME280;2025;48.260;16.432;2022-12-29T02:16:57;99932.19;;;-2.51;100.00
4022;BME280;2025;48.260;16.432;2022-12-29T02:23:08;99926.38;;;-2.62;100.00
4022;BME280;2025;48.260;16.432;2022-12-29T02:25:58;99922.84;;;-2.64;100.00
4022;BME280;2025;48.260;16.432;2022-12-29T02:28:50;99915.13;;;-2.64;100.00
4022;BME280;2025;48.260;16.432;2022-12-29T02:31:25;99915.22;;;-2.63;100.00
4022;BME280;2025;48.260;16.432;2022-12-29T02:34:03;99928.56;;;-2.68;100.00
4022;BME280;2025;48.260;16.432;2022-12-29T02:36:40;99919.88;;;-2.70;100.00
4022;BME280;2025;48.260;16.432;2022-12-29T02:39:14;99915.63;;;-2.70;100.00
4022;BME280;2025;48.260;16.432;2022-12-29T02:41:50;99916.44;;;-2.71;100.00
4022;BME280;2025;48.260;16.432;2022-12-29T02:44:27;99915.72;;;-2.68;100.00
4022;BME280;2025;48.260;16.432;2022-12-29T02:47:00;99908.94;;;-2.68;100.00
4022;BME280;2025;48.260;16.432;2022-12-29T02:49:35;99914.66;;;-2.72;100.00
4022;BME280;2025;48.260;16.432;2022-12-29T02:52:06;99917.03;;;-2.75;100.00
4022;BME280;2025;48.260;16.432;2022-12-29T02:54:35;99924.81;;;-2.73;100.00
4022;BME280;2025;48.260;16.432;2022-12-29T02:57:11;99924.13;;;-2.71;100.00
4022;BME280;2025;48.260;16.432;2022-12-29T02:59:39;99907.66;;;-2.74;100.00
4022;BME280;2025;48.260;16.432;2022-12-29T03:02:24;99907.94;;;-2.70;100.00
4022;BME280;2025;48.260;16.432;2022-12-29T03:05:14;99911.19;;;-2.72;100.00
4022;BME280;2025;48.260;16.432;2022-12-29T03:07:48;99920.56;;;-2.73;100.00
4022;BME280;2025;48.260;16.432;2022-12-29T03:10:30;99928.38;;;-2.71;100.00
4022;BME280;2025;48.260;16.432;2022-12-29T03:13:04;99928.16;;;-2.74;100.00
4022;BME280;2025;48.260;16.432;2022-12-29T03:15:55;99920.47;;;-2.74;100.00
4022;BME280;2025;48.260;16.432;2022-12-29T03:18:41;99928.28;;;-2.73;100.00
4022;BME280;2025;48.260;16.432;2022-12-29T03:21:14;99924.91;;;-2.72;100.00
4022;BME280;2025;48.260;16.432;2022-12-29T03:23:45;99917.13;;;-2.73;100.00
4022;BME280;2025;48.260;16.432;2022-12-29T03:26:16;99932.41;;;-2.75;100.00
4022;BME280;2025;48.260;16.432;2022-12-29T03:28:47;99923.34;;;-2.70;100.00
4022;BME280;2025;48.260;16.432;2022-12-29T03:31:17;99912.88;;;-2.73;100.00
4022;BME280;2025;48.260;16.432;2022-12-29T03:33:47;99929.16;;;-2.72;100.00
4022;BME280;2025;48.260;16.432;2022-12-29T03:36:18;99922.16;;;-2.75;100.00
4022;BME280;2025;48.260;16.432;2022-12-29T03:38:51;99916.84;;;-2.78;100.00
4022;BME280;2025;48.260;16.432;2022-12-29T03:41:24;99924.81;;;-2.73;100.00
4022;BME280;2025;48.260;16.432;2022-12-29T03:43:52;99924.13;;;-2.71;100.00
4022;BME280;2025;48.260;16.432;2022-12-29T03:46:19;99922.53;;;-2.69;100.00
4022;BME280;2025;48.260;16.432;2022-12-29T03:48:48;99919.38;;;-2.65;100.00
4022;BME280;2025;48.260;16.432;2022-12-29T03:51:15;99928.16;;;-2.61;100.00
4022;BME280;2025;48.260;16.432;2022-12-29T03:53:42;99925.78;;;-2.58;100.00
4022;BME280;2025;48.260;16.432;2022-12-29T03:56:09;99935.16;;;-2.59;100.00
4022;BME280;2025;48.260;16.432;2022-12-29T03:58:36;99938.50;;;-2.60;100.00
4022;BME280;2025;48.260;16.432;2022-12-29T04:01:03;99932.50;;;-2.60;100.00
4022;BME280;2025;48.260;16.432;2022-12-29T04:03:30;99917.00;;;-2.62;100.00
4022;BME280;2025;48.260;16.432;2022-12-29T04:05:58;99914.72;;;-2.57;100.00
4022;BME280;2025;48.260;16.432;2022-12-29T04:08:25;99918.19;;;-2.56;100.00
4022;BME280;2025;48.260;16.432;2022-12-29T04:10:52;99928.44;;;-2.56;100.00
4022;BME280;2025;48.260;16.432;2022-12-29T04:13:19;99928.44;;;-2.56;100.00
4022;BME280;2025;48.260;16.432;2022-12-29T04:15:46;99925.69;;;-2.60;100.00
4022;BME280;2025;48.260;16.432;2022-12-29T04:18:13;99911.66;;;-2.51;100.00
4022;BME280;2025;48.260;16.432;2022-12-29T04:20:41;99921.94;;;-2.51;100.00
4022;BME280;2025;48.260;16.432;2022-12-29T04:23:30;99921.03;;;-2.52;100.00
4022;BME280;2025;48.260;16.432;2022-12-29T04:25:57;99928.84;;;-2.50;100.00
4022;BME280;2025;48.260;16.432;2022-12-29T04:28:24;99920.16;;;-2.52;100.00
4022;BME280;2025;48.260;16.432;2022-12-29T04:30:51;99934.66;;;-2.53;100.00
4022;BME280;2025;48.260;16.432;2022-12-29T04:33:19;99935.16;;;-2.59;100.00
4022;BME280;2025;48.260;16.432;2022-12-29T04:35:46;99941.09;;;-2.60;100.00
4022;BME280;2025;48.260;16.432;2022-12-29T04:38:14;99944.44;;;-2.61;100.00
4022;BME280;2025;48.260;16.432;2022-12-29T04:40:43;99932.19;;;-2.51;100.00
4022;BME280;2025;48.260;16.432;2022-12-29T04:43:10;99923.69;;;-2.50;100.00
4022;BME280;2025;48.260;16.432;2022-12-29T04:45:38;99937.13;;;-2.54;100.00
4022;BME280;2025;48.260;16.432;2022-12-29T04:48:05;99932.97;;;-2.52;100.00
4022;BME280;2025;48.260;16.432;2022-12-29T04:50:32;99939.59;;;-2.56;100.00
4022;BME280;2025;48.260;16.432;2022-12-29T04:52:59;99941.47;;;-2.53;100.00
4022;BME280;2025;48.260;16.432;2022-12-29T04:55:26;99929.03;;;-2.47;100.00
4022;BME280;2025;48.260;16.432;2022-12-29T04:57:54;99931.97;;;-2.41;100.00
4022;BME280;2025;48.260;16.432;2022-12-29T05:00:22;99920.03;;;-2.41;100.00
4022;BME280;2025;48.260;16.432;2022-12-29T05:02:49;99923.25;;;-2.30;100.00
4022;BME280;2025;48.260;16.432;2022-12-29T05:05:17;99920.69;;;-2.30;100.00
4022;BME280;2025;48.260;16.432;2022-12-29T05:07:44;99927.97;;;-2.23;100.00
4022;BME280;2025;48.260;16.432;2022-12-29T05:10:11;99935.06;;;-2.19;100.00
4022;BME280;2025;48.260;16.432;2022-12-29T05:12:39;99933.06;;;-2.10;100.00
4022;BME280;2025;48.260;16.432;2022-12-29T05:15:09;99929.09;;;-2.05;100.00
4022;BME280;2025;48.260;16.432;2022-12-29T05:17:36;99926.00;;;-1.99;100.00
4022;BME280;2025;48.260;16.432;2022-12-29T05:20:04;99927.28;;;-1.92;100.00
4022;BME280;2025;48.260;16.432;2022-12-29T05:22:31;99923.75;;;-1.80;100.00
4022;BME280;2025;48.260;16.432;2022-12-29T05:24:59;99912.97;;;-1.74;100.00
4022;BME280;2025;48.260;16.432;2022-12-29T05:27:26;99917.59;;;-1.69;100.00
4022;BME280;2025;48.260;16.432;2022-12-29T05:29:53;99922.03;;;-1.66;100.00
4022;BME280;2025;48.260;16.432;2022-12-29T05:32:21;99926.66;;;-1.60;100.00
4022;BME280;2025;48.260;16.432;2022-12-29T05:34:48;99935.94;;;-1.63;100.00
4022;BME280;2025;48.260;16.432;2022-12-29T05:37:15;99937.09;;;-1.57;100.00
4022;BME280;2025;48.260;16.432;2022-12-29T05:39:42;99938.09;;;-1.55;100.00
4022;BME280;2025;48.260;16.432;2022-12-29T05:42:09;99924.44;;;-1.54;100.00
4022;BME280;2025;48.260;16.432;2022-12-29T05:44:36;99920.63;;;-1.46;100.00
4022;BME280;2025;48.260;16.432;2022-12-29T05:47:03;99912.31;;;-1.42;100.00
4022;BME280;2025;48.260;16.432;2022-12-29T05:49:41;99922.25;;;-1.34;100.00
4022;BME280;2025;48.260;16.432;2022-12-29T05:52:20;99916.66;;;-1.26;100.00
4022;BME280;2025;48.260;16.432;2022-12-29T05:54:56;99904.16;;;-1.20;100.00
4022;BME280;2025;48.260;16.432;2022-12-29T05:57:43;99893.41;;;-1.13;100.00
4022;BME280;2025;48.260;16.432;2022-12-29T06:14:18;99902.13;;;-0.49;100.00
4022;BME280;2025;48.260;16.432;2022-12-29T06:16:59;99901.66;;;-0.42;100.00
4022;BME280;2025;48.260;16.432;2022-12-29T06:19:26;99898.84;;;-0.30;100.00
4022;BME280;2025;48.260;16.432;2022-12-29T06:22:40;99890.25;;;-0.15;100.00
4022;BME280;2025;48.260;16.432;2022-12-29T06:51:56;99922.66;;;0.63;100.00
4022;BME280;2025;48.260;16.432;2022-12-29T08:08:39;99947.28;;;1.44;100.00
4022;BME280;2025;48.260;16.432;2022-12-29T08:11:06;99944.56;;;1.41;100.00
4022;BME280;2025;48.260;16.432;2022-12-29T08:13:54;99941.97;;;1.41;100.00
4022;BME280;2025;48.260;16.432;2022-12-29T08:16:37;99933.28;;;1.39;100.00
4022;BME280;2025;48.260;16.432;2022-12-29T08:19:21;99938.00;;;1.47;100.00
4022;BME280;2025;48.260;16.432;2022-12-29T08:22:05;99942.56;;;1.53;100.00
4022;BME280;2025;48.260;16.432;2022-12-29T08:24:51;99933.72;;;1.48;100.00
4022;BME280;2025;48.260;16.432;2022-12-29T08:27:19;99936.97;;;1.44;100.00
4022;BME280;2025;48.260;16.432;2022-12-29T08:29:55;99941.16;;;1.42;100.00
4022;BME280;2025;48.260;16.432;2022-12-29T08:32:22;99930.03;;;1.43;100.00
4022;BME280;2025;48.260;16.432;2022-12-29T08:38:29;99928.75;;;1.52;100.00
4022;BME280;2025;48.260;16.432;2022-12-29T08:41:01;99934.00;;;1.54;100.00
4022;BME280;2025;48.260;16.432;2022-12-29T08:43:40;99934.59;;;1.48;100.00
4022;BME280;2025;48.260;16.432;2022-12-29T08:53:36;99927.72;;;1.49;100.00
4022;BME280;2025;48.260;16.432;2022-12-29T08:56:47;99920.72;;;1.46;100.00
4022;BME280;2025;48.260;16.432;2022-12-29T09:06:19;99914.91;;;1.33;100.00
4022;BME280;2025;48.260;16.432;2022-12-29T10:11:29;99880.16;;;1.44;100.00
4022;BME280;2025;48.260;16.432;2022-12-29T10:14:16;99873.94;;;1.58;100.00
4022;BME280;2025;48.260;16.432;2022-12-29T10:28:05;99874.63;;;1.73;100.00
4022;BME280;2025;48.260;16.432;2022-12-29T10:30:36;99860.81;;;1.73;100.00
4022;BME280;2025;48.260;16.432;2022-12-29T10:33:10;99863.78;;;1.80;100.00
4022;BME280;2025;48.260;16.432;2022-12-29T10:35:40;99858.75;;;1.83;100.00
4022;BME280;2025;48.260;16.432;2022-12-29T10:38:18;99862.97;;;2.01;100.00
4022;BME280;2025;48.260;16.432;2022-12-29T10:40:57;99872.63;;;2.05;100.00
4022;BME280;2025;48.260;16.432;2022-12-29T10:43:32;99873.91;;;2.14;100.00
4022;BME280;2025;48.260;16.432;2022-12-29T10:46:04;99888.53;;;2.14;100.00
4022;BME280;2025;48.260;16.432;2022-12-29T10:48:34;99886.56;;;2.08;100.00
4022;BME280;2025;48.260;16.432;2022-12-29T10:51:04;99888.28;;;2.08;100.00
4022;BME280;2025;48.260;16.432;2022-12-29T10:53:37;99883.09;;;2.08;100.00
4022;BME280;2025;48.260;16.432;2022-12-29T10:56:34;99890.91;;;2.09;100.00
4022;BME280;2025;48.260;16.432;2022-12-29T11:13:31;99870.38;;;2.12;100.00
4022;BME280;2025;48.260;16.432;2022-12-29T11:16:00;99869.44;;;2.10;100.00
4022;BME280;2025;48.260;16.432;2022-12-29T11:18:37;99872.00;;;2.10;100.00
4022;BME280;2025;48.260;16.432;2022-12-29T11:21:09;99867.13;;;2.16;100.00
4022;BME280;2025;48.260;16.432;2022-12-29T11:31:41;99863.25;;;2.07;100.00
4022;BME280;2025;48.260;16.432;2022-12-29T11:34:08;99871.31;;;2.14;100.00
4022;BME280;2025;48.260;16.432;2022-12-29T11:36:43;99863.25;;;2.07;100.00
4022;BME280;2025;48.260;16.432;2022-12-29T11:39:28;99854.38;;;2.21;100.00
4022;BME280;2025;48.260;16.432;2022-12-29T11:41:56;99857.66;;;2.17;100.00
4022;BME280;2025;48.260;16.432;2022-12-29T11:44:24;99841.38;;;2.19;100.00
4022;BME280;2025;48.260;16.432;2022-12-29T11:46:53;99847.56;;;2.23;100.00
4022;BME280;2025;48.260;16.432;2022-12-29T11:49:22;99847.16;;;2.33;100.00
4022;BME280;2025;48.260;16.432;2022-12-29T11:51:51;99855.31;;;2.42;100.00
4022;BME280;2025;48.260;16.432;2022-12-29T11:55:16;99854.34;;;2.40;100.00
4022;BME280;2025;48.260;16.432;2022-12-29T11:58:04;99852.91;;;2.47;100.00
4022;BME280;2025;48.260;16.432;2022-12-29T12:00:41;99854.28;;;2.39;100.00
4022;BME280;2025;48.260;16.432;2022-12-29T12:03:24;99860.34;;;2.39;100.00
4022;BME280;2025;48.260;16.432;2022-12-29T12:05:56;99849.38;;;2.45;100.00
4022;BME280;2025;48.260;16.432;2022-12-29T12:23:38;99852.84;;;2.45;100.00
4022;BME280;2025;48.260;16.432;2022-12-29T12:29:46;99838.84;;;2.40;100.00
4022;BME280;2025;48.260;16.432;2022-12-29T12:32:25;99839.53;;;2.36;100.00
4022;BME280;2025;48.260;16.432;2022-12-29T12:34:53;99831.84;;;2.38;100.00
4022;BME280;2025;48.260;16.432;2022-12-29T12:37:44;99820.59;;;2.37;100.00
4022;BME280;2025;48.260;16.432;2022-12-29T12:52:13;99818.34;;;2.66;100.00
4022;BME280;2025;48.260;16.432;2022-12-29T13:01:24;99829.44;;;2.84;100.00
4022;BME280;2025;48.260;16.432;2022-12-29T13:22:12;99861.03;;;3.41;100.00
4022;BME280;2025;48.260;16.432;2022-12-29T13:25:01;99864.13;;;3.32;100.00
4022;BME280;2025;48.260;16.432;2022-12-29T13:27:41;99856.50;;;3.35;100.00
4022;BME280;2025;48.260;16.432;2022-12-29T13:34:19;99858.78;;;3.28;100.00
4022;BME280;2025;48.260;16.432;2022-12-29T13:47:50;99895.63;;;4.10;100.00
4022;BME280;2025;48.260;16.432;2022-12-29T13:50:22;99903.13;;;4.02;100.00
4022;BME280;2025;48.260;16.432;2022-12-29T13:52:55;99908.38;;;3.81;100.00
4022;BME280;2025;48.260;16.432;2022-12-29T13:55:29;99913.16;;;3.71;100.00
4022;BME280;2025;48.260;16.432;2022-12-29T13:58:03;99898.97;;;3.61;100.00
4022;BME280;2025;48.260;16.432;2022-12-29T14:00:48;99895.56;;;3.62;100.00
4022;BME280;2025;48.260;16.432;2022-12-29T14:03:47;99892.50;;;3.50;100.00
4022;BME280;2025;48.260;16.432;2022-12-29T14:15:43;99902.53;;;3.42;100.00
4022;BME280;2025;48.260;16.432;2022-12-29T14:20:29;99889.88;;;3.28;100.00
4022;BME280;2025;48.260;16.432;2022-12-29T14:21:28;99889.03;;;3.29;100.00
4022;BME280;2025;48.260;16.432;2022-12-29T14:24:37;99889.09;;;3.30;100.00
4022;BME280;2025;48.260;16.432;2022-12-29T14:27:44;99885.25;;;3.20;100.00
4022;BME280;2025;48.260;16.432;2022-12-29T14:33:17;99879.78;;;3.13;100.00
4022;BME280;2025;48.260;16.432;2022-12-29T14:35:46;99875.19;;;3.06;100.00
4022;BME280;2025;48.260;16.432;2022-12-29T14:42:03;99870.44;;;2.96;100.00
4022;BME280;2025;48.260;16.432;2022-12-29T14:44:57;99861.63;;;2.90;100.00
4022;BME280;2025;48.260;16.432;2022-12-29T14:54:42;99859.34;;;2.77;100.00
4022;BME280;2025;48.260;16.432;2022-12-29T14:58:06;99857.97;;;2.65;100.00
4022;BME280;2025;48.260;16.432;2022-12-29T15:04:20;99852.03;;;2.46;100.00
4022;BME280;2025;48.260;16.432;2022-12-29T15:07:09;99852.38;;;2.35;100.00
4022;BME280;2025;48.260;16.432;2022-12-29T15:09:42;99847.16;;;2.33;100.00
4022;BME280;2025;48.260;16.432;2022-12-29T15:15:22;99847.31;;;2.17;100.00
4022;BME280;2025;48.260;16.432;2022-12-29T15:18:12;99837.53;;;2.10;100.00
4022;BME280;2025;48.260;16.432;2022-12-29T15:20:42;99815.63;;;2.02;100.00
4022;BME280;2025;48.260;16.432;2022-12-29T15:24:32;99815.69;;;2.03;100.00
4022;BME280;2025;48.260;16.432;2022-12-29T15:26:07;99817.81;;;1.92;100.00
4022;BME280;2025;48.260;16.432;2022-12-29T16:06:56;99787.56;;;1.14;100.00
4022;BME280;2025;48.260;16.432;2022-12-29T16:09:36;99774.53;;;1.11;100.00
4022;BME280;2025;48.260;16.432;2022-12-29T16:15:39;99786.69;;;1.14;100.00
4022;BME280;2025;48.260;16.432;2022-12-29T16:25:45;99780.88;;;1.37;100.00
4022;BME280;2025;48.260;16.432;2022-12-29T16:28:38;99781.75;;;1.18;100.00
4022;BME280;2025;48.260;16.432;2022-12-29T16:41:55;99809.72;;;0.91;100.00
4022;BME280;2025;48.260;16.432;2022-12-29T16:44:24;99794.25;;;0.91;100.00
4022;BME280;2025;48.260;16.432;2022-12-29T16:47:19;99795.28;;;0.95;100.00
4022;BME280;2025;48.260;16.432;2022-12-29T16:49:53;99788.78;;;0.85;100.00
4022;BME280;2025;48.260;16.432;2022-12-29T16:52:23;99786.28;;;0.87;100.00
4022;BME280;2025;48.260;16.432;2022-12-29T17:16:48;99768.81;;;0.99;100.00
4022;BME280;2025;48.260;16.432;2022-12-29T17:23:26;99767.06;;;1.17;100.00
4022;BME280;2025;48.260;16.432;2022-12-29T17:42:03;99762.84;;;0.82;100.00
4022;BME280;2025;48.260;16.432;2022-12-29T18:00:17;99764.88;;;1.07;100.00
4022;BME280;2025;48.260;16.432;2022-12-29T18:02:44;99773.72;;;1.12;100.00
4022;BME280;2025;48.260;16.432;2022-12-29T18:05:17;99777.47;;;1.19;100.00
4022;BME280;2025;48.260;16.432;2022-12-29T18:08:20;99762.19;;;1.23;100.00
4022;BME280;2025;48.260;16.432;2022-12-29T18:22:52;99774.50;;;1.48;100.00
4022;BME280;2025;48.260;16.432;2022-12-29T18:25:39;99771.84;;;1.47;100.00
4022;BME280;2025;48.260;16.432;2022-12-29T18:28:22;99778.78;;;1.48;100.00
4022;BME280;2025;48.260;16.432;2022-12-29T18:31:15;99773.06;;;1.36;100.00
4022;BME280;2025;48.260;16.432;2022-12-29T18:34:06;99767.16;;;1.38;100.00
4022;BME280;2025;48.260;16.432;2022-12-29T18:40:51;99761.66;;;1.69;100.00
4022;BME280;2025;48.260;16.432;2022-12-29T18:43:20;99775.75;;;1.76;100.00
4022;BME280;2025;48.260;16.432;2022-12-29T18:45:47;99768.13;;;1.79;100.00
4022;BME280;2025;48.260;16.432;2022-12-29T18:48:22;99778.88;;;1.88;100.00
4022;BME280;2025;48.260;16.432;2022-12-29T18:50:49;99778.19;;;1.92;100.00
4022;BME280;2025;48.260;16.432;2022-12-29T18:53:19;99779.00;;;1.91;100.00
4022;BME280;2025;48.260;16.432;2022-12-29T18:59:49;99779.44;;;2.02;100.00
4022;BME280;2025;48.260;16.432;2022-12-29T19:02:40;99777.81;;;2.04;100.00
4022;BME280;2025;48.260;16.432;2022-12-29T19:09:18;99779.97;;;2.14;100.00
4022;BME280;2025;48.260;16.432;2022-12-29T19:11:50;99781.88;;;2.18;100.00
4022;BME280;2025;48.260;16.432;2022-12-29T19:14:18;99774.19;;;2.19;100.00
4022;BME280;2025;48.260;16.432;2022-12-29T19:16:52;99759.44;;;2.17;100.00
4022;BME280;2025;48.260;16.432;2022-12-29T19:19:35;99754.63;;;2.26;100.00
4022;BME280;2025;48.260;16.432;2022-12-29T19:22:02;99758.59;;;2.39;100.00
4022;BME280;2025;48.260;16.432;2022-12-29T19:24:29;99759.41;;;2.58;100.00
4022;BME280;2025;48.260;16.432;2022-12-29T19:26:56;99772.00;;;2.72;100.00
4022;BME280;2025;48.260;16.432;2022-12-29T19:29:23;99786.03;;;2.77;100.00
4022;BME280;2025;48.260;16.432;2022-12-29T19:31:54;99792.56;;;2.89;100.00
4022;BME280;2025;48.260;16.432;2022-12-29T19:41:30;99794.09;;;2.64;100.00
4022;BME280;2025;48.260;16.432;2022-12-29T19:44:13;99801.28;;;2.71;100.00
4022;BME280;2025;48.260;16.432;2022-12-29T19:46:41;99798.00;;;2.75;100.00
4022;BME280;2025;48.260;16.432;2022-12-29T19:49:10;99797.13;;;2.74;100.00
4022;BME280;2025;48.260;16.432;2022-12-29T19:51:37;99786.13;;;2.80;100.00
4022;BME280;2025;48.260;16.432;2022-12-29T19:54:04;99785.84;;;2.95;100.00
4022;BME280;2025;48.260;16.432;2022-12-29T19:56:31;99789.31;;;2.95;100.00
4022;BME280;2025;48.260;16.432;2022-12-29T19:59:01;99792.09;;;3.00;100.00
4022;BME280;2025;48.260;16.432;2022-12-29T20:01:36;99802.50;;;3.01;100.00
4022;BME280;2025;48.260;16.432;2022-12-29T20:04:03;99794.97;;;3.07;100.00
4022;BME280;2025;48.260;16.432;2022-12-29T20:06:31;99802.75;;;3.07;100.00
4022;BME280;2025;48.260;16.432;2022-12-29T20:09:00;99804.47;;;3.07;100.00
4022;BME280;2025;48.260;16.432;2022-12-29T20:11:28;99803.09;;;3.16;100.00
4022;BME280;2025;48.260;16.432;2022-12-29T20:13:55;99801.56;;;3.21;100.00
4022;BME280;2025;48.260;16.432;2022-12-29T20:16:22;99808.53;;;3.22;100.00
4022;BME280;2025;48.260;16.432;2022-12-29T20:18:49;99817.13;;;3.21;100.00
4022;BME280;2025;48.260;16.432;2022-12-29T20:21:18;99809.94;;;3.14;100.00
4022;BME280;2025;48.260;16.432;2022-12-29T20:23:47;99817.88;;;3.19;100.00
4022;BME280;2025;48.260;16.432;2022-12-29T20:26:17;99828.28;;;3.20;100.00
4022;BME280;2025;48.260;16.432;2022-12-29T20:28:45;99827.34;;;3.18;100.00
4022;BME280;2025;48.260;16.432;2022-12-29T20:31:15;99828.19;;;3.17;100.00
4022;BME280;2025;48.260;16.432;2022-12-29T20:33:43;99819.53;;;3.17;100.00
4022;BME280;2025;48.260;16.432;2022-12-29T20:36:13;99816.81;;;3.14;100.00
4022;BME280;2025;48.260;16.432;2022-12-29T20:38:42;99812.63;;;3.17;100.00
4022;BME280;2025;48.260;16.432;2022-12-29T20:41:11;99811.75;;;3.17;100.00
4022;BME280;2025;48.260;16.432;2022-12-29T20:43:39;99812.75;;;3.20;100.00
4022;BME280;2025;48.260;16.432;2022-12-29T20:46:07;99806.53;;;3.15;100.00
4022;BME280;2025;48.260;16.432;2022-12-29T20:48:35;99805.53;;;3.12;100.00
4022;BME280;2025;48.260;16.432;2022-12-29T20:51:03;99796.56;;;3.04;100.00
4022;BME280;2025;48.260;16.432;2022-12-29T20:53:31;99791.34;;;3.02;100.00
4022;BME280;2025;48.260;16.432;2022-12-29T20:56:01;99786.16;;;3.02;100.00
4022;BME280;2025;48.260;16.432;2022-12-29T20:58:43;99772.22;;;2.99;100.00
4022;BME280;2025;48.260;16.432;2022-12-29T21:01:27;99770.44;;;2.98;100.00
4022;BME280;2025;48.260;16.432;2022-12-29T21:03:57;99780.63;;;2.93;100.00
4022;BME280;2025;48.260;16.432;2022-12-29T21:06:33;99771.09;;;2.92;100.00
4022;BME280;2025;48.260;16.432;2022-12-29T21:09:05;99775.03;;;2.82;100.00
4022;BME280;2025;48.260;16.432;2022-12-29T21:11:38;99768.72;;;2.76;100.00
4022;BME280;2025;48.260;16.432;2022-12-29T21:14:10;99760.03;;;2.74;100.00
4022;BME280;2025;48.260;16.432;2022-12-29T21:16:37;99772.44;;;2.82;100.00
4022;BME280;2025;48.260;16.432;2022-12-29T21:19:04;99776.56;;;2.77;100.00
4022;BME280;2025;48.260;16.432;2022-12-29T21:21:31;99770.56;;;2.78;100.00
4022;BME280;2025;48.260;16.432;2022-12-29T21:31:29;99778.84;;;2.70;100.00
4022;BME280;2025;48.260;16.432;2022-12-29T21:37:40;99765.78;;;2.46;100.00
